Time;durP1;ratioP1;P1;durP2;ratioP2;P2;SDS_P1;SDS_P2;PMS_P1;PMS_P2;Temp;Humidity;BMP_temperature;BMP_pressure;BME280_temperature;BME280_humidity;BME280_pressure;Samples;Min_cycle;Max_cycle;Signal;HPM_P1;HPM_P2
2021/11/14 00:00:25;;;;;;;42.45;27.42;;;;;;;6.26;83.38;100879.28;4997885;28;20026;-79
2021/11/14 00:02:50;;;;;;;37.95;25.13;;;;;;;6.33;83.44;100875.88;4993762;28;20038;-79
2021/11/14 00:05:16;;;;;;;39.63;25.85;;;;;;;6.34;82.96;100876.75;4994105;28;20049;-80
2021/11/14 00:07:41;;;;;;;43.92;26.20;;;;;;;6.32;83.31;100884.63;4997633;28;20606;-79
2021/11/14 00:10:08;;;;;;;37.78;24.48;;;;;;;6.37;83.10;100882.09;4980878;28;20101;-79
2021/11/14 00:12:33;;;;;;;36.58;23.35;;;;;;;6.33;82.73;100882.88;4997801;28;20034;-80
2021/11/14 00:14:59;;;;;;;37.50;24.58;;;;;;;6.30;83.01;100885.44;4997774;28;20074;-79
2021/11/14 00:17:30;;;;;;;39.05;25.23;;;;;;;6.27;83.57;100875.81;4980524;28;20420;-80
2021/11/14 00:19:55;;;;;;;35.25;24.15;;;;;;;6.23;84.36;100880.97;4980114;28;20048;-79
2021/11/14 00:22:20;;;;;;;37.75;24.58;;;;;;;6.27;84.02;100885.41;4997144;28;20034;-80
2021/11/14 00:24:46;;;;;;;36.72;24.90;;;;;;;6.28;83.65;100882.78;4997612;28;20038;-79
2021/11/14 00:27:11;;;;;;;37.35;24.33;;;;;;;6.32;84.01;100889.88;4997151;28;20030;-80
2021/11/14 00:29:36;;;;;;;34.47;23.30;;;;;;;6.34;83.15;100896.03;4979800;28;20044;-79
2021/11/14 00:32:02;;;;;;;33.88;21.75;;;;;;;6.30;83.36;100890.69;4980268;28;20038;-79
2021/11/14 00:34:28;;;;;;;34.60;21.90;;;;;;;6.35;83.28;100899.53;4996948;28;20049;-80
2021/11/14 00:36:54;;;;;;;34.55;22.98;;;;;;;6.35;83.18;100897.78;4997288;28;20100;-79
2021/11/14 00:39:20;;;;;;;32.63;21.08;;;;;;;6.40;83.09;100891.75;4996944;28;20038;-79
2021/11/14 00:41:47;;;;;;;33.65;22.90;;;;;;;6.41;82.65;100890.88;4996941;28;20037;-79
2021/11/14 00:44:13;;;;;;;33.42;22.50;;;;;;;6.35;82.70;100895.16;4996702;28;20043;-79
2021/11/14 00:46:39;;;;;;;33.95;23.23;;;;;;;6.30;82.52;100901.19;4997036;28;20400;-79
2021/11/14 00:49:04;;;;;;;34.40;22.58;;;;;;;6.24;83.18;100898.47;4996988;28;20050;-79
2021/11/14 00:51:30;;;;;;;32.58;21.88;;;;;;;6.25;83.56;100897.59;4984388;23;20043;-80
2021/11/14 00:53:58;;;;;;;32.97;23.00;;;;;;;6.25;83.54;100903.72;4965004;28;20030;-79
2021/11/14 00:56:24;;;;;;;37.95;23.95;;;;;;;6.34;83.41;100902.97;4966416;28;20042;-80
2021/11/14 00:58:50;;;;;;;32.33;20.98;;;;;;;6.41;83.04;100899.63;4965884;28;20034;-80
2021/11/14 01:01:16;;;;;;;34.33;23.40;;;;;;;6.45;83.11;100911.94;4965922;28;20039;-80
2021/11/14 01:03:41;;;;;;;33.75;21.80;;;;;;;6.43;82.97;100903.16;4965934;28;20093;-79
2021/11/14 01:06:07;;;;;;;33.92;23.50;;;;;;;6.45;83.08;100905.81;4965457;28;20035;-79
2021/11/14 01:08:32;;;;;;;33.28;23.20;;;;;;;6.45;83.31;100903.19;4966871;28;20508;-79
2021/11/14 01:10:59;;;;;;;31.50;20.88;;;;;;;6.52;82.54;100898.06;4964393;28;20047;-79
2021/11/14 01:13:25;;;;;;;32.78;22.20;;;;;;;6.56;82.87;100899.88;4966285;28;20042;-79
2021/11/14 01:15:51;;;;;;;38.28;24.02;;;;;;;6.54;82.55;100898.97;4964539;28;20425;-80
2021/11/14 01:18:19;;;;;;;32.22;22.52;;;;;;;6.49;82.83;100908.50;4964345;28;20034;-80
2021/11/14 01:20:49;;;;;;;32.20;21.88;;;;;;;6.42;83.04;100910.97;4964188;28;20071;-79
2021/11/14 01:23:16;;;;;;;36.15;22.70;;;;;;;6.46;82.95;100918.94;4966600;28;20093;-79
2021/11/14 01:25:42;;;;;;;35.10;23.45;;;;;;;6.50;83.25;100917.25;4963549;28;20035;-80
2021/11/14 01:28:09;;;;;;;30.42;22.00;;;;;;;6.52;83.18;100907.66;4966764;28;20122;-80
2021/11/14 01:30:40;;;;;;;33.50;22.40;;;;;;;6.54;83.31;100912.06;4963766;28;20043;-80
2021/11/14 01:33:07;;;;;;;32.60;22.30;;;;;;;6.62;83.02;100914.81;4963856;28;20058;-79
2021/11/14 01:35:34;;;;;;;33.67;21.83;;;;;;;6.59;82.73;100918.28;4974147;28;20057;-80
2021/11/14 01:38:00;;;;;;;33.45;22.40;;;;;;;6.50;83.52;100920.75;4967975;28;20041;-80
2021/11/14 01:40:36;;;;;;;33.50;22.58;;;;;;;6.44;83.98;100925.88;4964249;28;20114;-79
2021/11/14 01:43:02;;;;;;;34.50;21.92;;;;;;;6.47;83.97;100923.34;4963994;28;20434;-79
2021/11/14 01:45:28;;;;;;;33.15;22.20;;;;;;;6.56;83.95;100920.84;4967419;28;20473;-79
2021/11/14 01:47:53;;;;;;;33.90;22.73;;;;;;;6.63;83.45;100923.56;4964121;28;20036;-80
2021/11/14 01:50:21;;;;;;;39.65;26.50;;;;;;;6.68;82.70;100924.50;4967370;28;20088;-79
2021/11/14 01:52:50;;;;;;;34.63;23.27;;;;;;;6.65;82.90;100922.72;4971876;28;20035;-80
2021/11/14 01:55:20;;;;;;;34.80;23.80;;;;;;;6.59;83.01;100928.75;4965541;28;20035;-80
2021/11/14 01:57:45;;;;;;;32.13;21.55;;;;;;;6.62;83.83;100940.16;4965249;28;20042;-80
2021/11/14 02:00:19;;;;;;;33.65;23.30;;;;;;;6.71;83.56;100935.97;4986478;28;20410;-79
2021/11/14 02:02:45;;;;;;;35.40;22.52;;;;;;;6.75;83.13;100934.25;4967582;28;20129;-79
2021/11/14 02:05:11;;;;;;;35.47;23.52;;;;;;;6.71;83.27;100942.97;4971634;28;20070;-80
2021/11/14 02:07:37;;;;;;;35.58;22.67;;;;;;;6.75;83.19;100944.75;4967223;28;20054;-80
2021/11/14 02:10:05;;;;;;;37.60;23.55;;;;;;;6.75;82.71;100950.00;4970383;28;20050;-80
2021/11/14 02:12:31;;;;;;;34.53;21.02;;;;;;;6.73;82.81;100959.56;4970381;28;20042;-80
2021/11/14 02:14:56;;;;;;;36.53;21.40;;;;;;;6.68;83.34;100956.00;4971785;28;20042;-78
2021/11/14 02:17:21;;;;;;;35.85;23.92;;;;;;;6.61;83.28;100948.91;4969927;28;20511;-80
2021/11/14 02:19:52;;;;;;;37.35;23.23;;;;;;;6.67;83.41;100955.13;4968482;28;20043;-80
2021/11/14 02:22:19;;;;;;;32.67;20.25;;;;;;;6.67;83.63;100959.47;4969915;28;20055;-80
2021/11/14 02:24:45;;;;;;;29.15;20.80;;;;;;;6.72;83.11;100963.94;4968134;28;20126;-79
2021/11/14 02:27:11;;;;;;;29.13;19.35;;;;;;;6.63;83.78;100957.66;4969604;28;20039;-80
2021/11/14 02:29:37;;;;;;;31.63;22.38;;;;;;;6.58;83.78;100971.59;4968488;28;20556;-80
2021/11/14 02:32:02;;;;;;;33.65;22.55;;;;;;;6.68;84.29;100972.63;4968598;28;20066;-80
2021/11/14 02:34:28;;;;;;;36.03;23.50;;;;;;;6.77;83.75;100967.53;4969121;28;20410;-79
2021/11/14 02:36:53;;;;;;;34.35;23.27;;;;;;;6.77;83.26;100972.78;4968324;28;20433;-79
2021/11/14 02:39:19;;;;;;;35.47;24.02;;;;;;;6.70;84.24;100967.41;4969952;28;20031;-80
2021/11/14 02:41:45;;;;;;;38.13;23.63;;;;;;;6.75;84.20;100973.59;4970818;28;20042;-79
2021/11/14 02:44:11;;;;;;;35.47;22.88;;;;;;;6.90;83.47;100972.97;4969873;28;20039;-80
2021/11/14 02:46:37;;;;;;;32.42;22.55;;;;;;;6.95;82.72;100966.06;4970782;28;20039;-80
2021/11/14 02:49:02;;;;;;;33.75;22.55;;;;;;;6.93;82.40;100965.16;4966808;28;20047;-79
2021/11/14 02:51:30;;;;;;;32.72;20.70;;;;;;;6.91;82.84;100970.38;4972224;28;20042;-80
2021/11/14 02:53:56;;;;;;;30.65;20.75;;;;;;;6.80;83.06;100964.06;4969638;28;20114;-80
2021/11/14 02:56:22;;;;;;;37.38;23.13;;;;;;;6.65;83.87;100966.44;4967886;28;20062;-79
2021/11/14 02:58:48;;;;;;;34.60;22.40;;;;;;;6.62;83.86;100963.78;4969397;28;20585;-80
2021/11/14 03:01:18;;;;;;;30.35;20.65;;;;;;;6.61;84.54;100962.00;4968246;28;20043;-79
2021/11/14 03:03:47;;;;;;;32.88;21.50;;;;;;;6.65;84.39;100982.19;4968757;28;20035;-80
2021/11/14 03:06:13;;;;;;;36.25;23.63;;;;;;;6.69;84.45;100973.50;4967521;28;20406;-80
2021/11/14 03:08:39;;;;;;;34.88;23.23;;;;;;;6.77;83.10;100983.28;4968950;28;20035;-79
2021/11/14 03:11:05;;;;;;;34.58;22.42;;;;;;;6.83;83.41;100985.09;4967305;28;20497;-79
2021/11/14 03:13:31;;;;;;;33.90;21.10;;;;;;;6.88;83.12;100991.31;4967742;28;20035;-80
2021/11/14 03:15:59;;;;;;;35.88;24.02;;;;;;;6.89;83.09;100993.09;4968421;28;20031;-80
2021/11/14 03:18:25;;;;;;;35.35;22.33;;;;;;;6.95;82.91;100981.81;4968410;28;20124;-80
2021/11/14 03:20:52;;;;;;;33.50;22.55;;;;;;;7.08;82.57;100988.13;4967555;28;20037;-80
2021/11/14 03:23:20;;;;;;;36.13;22.52;;;;;;;7.12;81.97;100985.56;4967288;28;20039;-80
2021/11/14 03:25:47;;;;;;;31.60;21.75;;;;;;;7.06;82.34;100987.22;4968414;28;20489;-80
2021/11/14 03:28:13;;;;;;;39.33;25.08;;;;;;;7.09;82.08;100995.13;4967989;28;20078;-79
2021/11/14 03:30:38;;;;;;;37.22;22.38;;;;;;;7.09;81.78;100995.13;4969035;28;20042;-79
2021/11/14 03:33:08;;;;;;;35.03;23.38;;;;;;;6.95;82.04;100995.81;4966664;28;20522;-79
2021/11/14 03:35:52;;;;;;;38.65;25.50;;;;;;;7.01;82.49;100992.41;4969033;28;20038;-80
2021/11/14 03:38:21;;;;;;;34.65;22.63;;;;;;;7.10;81.85;100989.94;4968452;28;20493;-80
2021/11/14 03:40:47;;;;;;;34.88;23.02;;;;;;;7.15;81.59;100995.22;4966327;28;20039;-80
2021/11/14 03:43:12;;;;;;;36.10;22.08;;;;;;;7.19;81.34;100995.31;4974062;28;20039;-79
2021/11/14 03:45:39;;;;;;;32.85;22.30;;;;;;;7.20;81.34;100997.09;4969440;28;20099;-80
2021/11/14 03:48:05;;;;;;;36.47;24.48;;;;;;;7.21;80.87;100993.59;4966700;28;20042;-80
2021/11/14 03:50:31;;;;;;;33.33;22.70;;;;;;;7.21;80.74;100997.97;4970733;28;20039;-80
2021/11/14 03:52:56;;;;;;;35.50;23.80;;;;;;;7.14;81.42;100993.47;4967873;28;20101;-80
2021/11/14 03:55:22;;;;;;;35.42;22.90;;;;;;;7.09;81.46;100982.00;4967329;28;20582;-79
2021/11/14 03:57:49;;;;;;;41.20;25.30;;;;;;;7.13;81.31;100991.72;4968139;28;20045;-80
2021/11/14 04:00:20;;;;;;;47.45;25.85;;;;;;;7.16;81.78;100990.00;4966214;28;20379;-80
2021/11/14 04:02:48;;;;;;;43.42;25.42;;;;;;;7.14;81.47;100993.47;4967466;28;20382;-80
2021/11/14 04:05:14;;;;;;;45.35;25.90;;;;;;;7.09;82.22;101000.38;4966445;28;20072;-80
2021/11/14 04:07:39;;;;;;;37.72;24.13;;;;;;;7.07;82.64;100996.84;4968351;28;20086;-80
2021/11/14 04:10:05;;;;;;;40.95;24.33;;;;;;;7.07;82.63;100997.72;4972174;28;20470;-80
2021/11/14 04:12:32;;;;;;;43.05;25.00;;;;;;;6.97;83.16;101011.59;4971380;28;20050;-79
2021/11/14 04:14:57;;;;;;;38.38;23.48;;;;;;;6.96;83.50;101010.69;4968236;28;20037;-80
2021/11/14 04:17:22;;;;;;;37.58;23.20;;;;;;;7.02;83.42;101010.81;4968668;28;20122;-80
2021/11/14 04:19:48;;;;;;;36.75;23.58;;;;;;;7.02;83.73;101004.66;4968589;28;20119;-80
2021/11/14 04:22:14;;;;;;;38.10;23.50;;;;;;;7.10;83.07;101012.63;4966004;28;20051;-79
2021/11/14 04:24:39;;;;;;;32.40;22.20;;;;;;;7.11;83.52;101010.06;4967757;28;20453;-80
2021/11/14 04:27:04;;;;;;;34.05;22.95;;;;;;;7.16;83.36;101021.50;4966047;28;20035;-80
2021/11/14 04:29:30;;;;;;;39.40;25.55;;;;;;;7.16;83.43;101021.50;4967366;28;20122;-81
2021/11/14 04:31:55;;;;;;;35.38;24.08;;;;;;;7.17;83.52;101023.25;4967075;28;20038;-80
2021/11/14 04:34:20;;;;;;;35.95;23.75;;;;;;;7.12;83.44;101027.56;4965826;28;20395;-80
2021/11/14 04:36:46;;;;;;;34.60;22.30;;;;;;;7.07;84.01;101028.34;4966913;28;20089;-80
2021/11/14 04:39:11;;;;;;;34.97;21.70;;;;;;;7.00;84.13;101032.63;4964580;28;20039;-80
2021/11/14 04:41:36;;;;;;;33.25;21.63;;;;;;;7.01;84.39;101030.00;4967274;28;20489;-80
2021/11/14 04:44:02;;;;;;;32.97;21.80;;;;;;;7.09;84.04;101031.88;4968148;28;20553;-80
2021/11/14 04:46:27;;;;;;;34.47;22.77;;;;;;;7.10;84.29;101038.88;4968613;28;20094;-79
2021/11/14 04:48:52;;;;;;;29.17;20.63;;;;;;;7.11;84.15;101045.94;4967931;28;20046;-80
2021/11/14 04:51:18;;;;;;;31.92;21.63;;;;;;;7.08;84.81;101053.75;4965700;28;20039;-80
2021/11/14 04:53:43;;;;;;;31.15;21.70;;;;;;;7.06;85.27;101048.47;4967094;28;20066;-80
2021/11/14 04:56:09;;;;;;;35.38;22.75;;;;;;;7.06;84.94;101058.97;4965804;28;20094;-79
2021/11/14 04:58:34;;;;;;;32.30;20.67;;;;;;;7.08;85.45;101061.63;4970972;28;20035;-79
2021/11/14 05:01:00;;;;;;;33.80;22.65;;;;;;;7.10;85.47;101060.78;4970534;28;20027;-80
2021/11/14 05:03:25;;;;;;;30.75;21.08;;;;;;;7.21;84.88;101063.59;4965802;28;20406;-80
2021/11/14 05:05:51;;;;;;;31.75;21.23;;;;;;;7.27;84.27;101062.81;4967627;28;20039;-79
2021/11/14 05:08:16;;;;;;;33.15;21.80;;;;;;;7.25;84.75;101060.13;4965742;28;20077;-80
2021/11/14 05:10:43;;;;;;;34.50;22.25;;;;;;;7.21;84.81;101069.72;4968536;28;20501;-80
2021/11/14 05:13:09;;;;;;;31.73;21.63;;;;;;;7.22;84.36;101065.34;4971348;28;20031;-81
2021/11/14 05:15:35;;;;;;;32.90;22.02;;;;;;;7.20;85.12;101078.47;4964580;28;20544;-80
2021/11/14 05:18:01;;;;;;;33.55;21.63;;;;;;;7.17;84.83;101072.25;4967449;28;20567;-80
2021/11/14 05:20:27;;;;;;;31.05;21.77;;;;;;;7.18;84.77;101081.94;4963804;28;20050;-80
2021/11/14 05:22:52;;;;;;;37.17;23.95;;;;;;;7.10;85.07;101086.13;4966964;28;20035;-79
2021/11/14 05:25:18;;;;;;;31.35;20.55;;;;;;;7.09;85.27;101085.25;4965923;28;20454;-80
2021/11/14 05:27:43;;;;;;;31.67;22.13;;;;;;;7.15;84.83;101077.50;4966594;28;20050;-80
2021/11/14 05:30:10;;;;;;;32.50;22.08;;;;;;;7.18;84.89;101087.19;4966757;28;20034;-80
2021/11/14 05:32:35;;;;;;;34.95;23.38;;;;;;;7.14;84.67;101088.84;4965820;28;20486;-80
2021/11/14 05:35:02;;;;;;;35.63;23.33;;;;;;;7.14;85.09;101093.22;4973079;28;20038;-80
2021/11/14 05:37:28;;;;;;;35.10;23.20;;;;;;;7.13;84.67;101100.22;4972200;28;20063;-80
2021/11/14 05:39:53;;;;;;;34.72;22.17;;;;;;;7.15;84.96;101097.59;4974182;28;20034;-79
2021/11/14 05:42:18;;;;;;;30.25;21.08;;;;;;;7.11;85.07;101099.31;4971270;28;20054;-80
2021/11/14 05:44:44;;;;;;;38.33;23.92;;;;;;;7.15;84.95;101101.13;4974135;28;20093;-80
2021/11/14 05:47:09;;;;;;;33.78;23.58;;;;;;;7.17;85.32;101103.75;4970992;28;20042;-80
2021/11/14 05:49:35;;;;;;;40.55;25.98;;;;;;;7.16;84.97;101110.75;4974320;28;20035;-80
2021/11/14 05:52:00;;;;;;;32.33;21.38;;;;;;;7.22;84.98;101102.97;4971644;28;20062;-80
2021/11/14 05:54:26;;;;;;;34.95;23.10;;;;;;;7.27;84.23;101110.94;4973314;28;20070;-80
2021/11/14 05:56:51;;;;;;;37.55;24.77;;;;;;;7.25;84.35;101110.03;4975683;28;20038;-80
2021/11/14 06:01:47;;;;;;;52.28;33.78;;;;;;;7.24;83.69;101121.41;4972929;28;20035;-80
2021/11/14 06:06:50;;;;;;;48.03;30.45;;;;;;;7.09;85.93;101121.13;4971091;28;20058;-80
2021/11/14 06:09:15;;;;;;;37.60;25.17;;;;;;;7.13;85.32;101129.09;4973780;28;20520;-80
2021/11/14 06:11:41;;;;;;;40.03;25.55;;;;;;;7.16;85.62;101129.13;4971669;28;20053;-80
2021/11/14 06:14:06;;;;;;;33.72;21.40;;;;;;;7.20;85.72;101136.22;4972785;28;20046;-80
2021/11/14 06:16:32;;;;;;;34.30;21.98;;;;;;;7.21;85.13;101143.22;4972638;28;20065;-79
2021/11/14 06:18:57;;;;;;;40.72;24.30;;;;;;;7.18;85.15;101142.31;4977304;28;20409;-80
2021/11/14 06:21:23;;;;;;;33.75;21.92;;;;;;;7.14;85.66;101150.97;4977536;28;20047;-80
2021/11/14 06:23:50;;;;;;;31.58;21.90;;;;;;;7.17;85.35;101151.91;4973048;28;20489;-80
2021/11/14 06:26:15;;;;;;;37.58;23.38;;;;;;;7.07;85.40;101154.34;4971580;28;20043;-80
2021/11/14 06:28:41;;;;;;;46.60;25.83;;;;;;;6.98;85.12;101150.69;4973959;28;20035;-80
2021/11/14 06:31:06;;;;;;;34.65;23.98;;;;;;;6.87;85.46;101161.84;4970145;28;20490;-80
2021/11/14 06:33:31;;;;;;;36.50;23.70;;;;;;;6.76;85.77;101164.28;4974052;28;20370;-80
2021/11/14 06:35:57;;;;;;;31.48;20.50;;;;;;;6.74;85.94;101166.84;4969293;28;20031;-80
2021/11/14 06:38:22;;;;;;;29.75;20.80;;;;;;;6.65;85.69;101176.28;4979335;28;20046;-80
2021/11/14 06:40:47;;;;;;;30.27;20.98;;;;;;;6.55;85.73;101176.09;4973519;28;20043;-80
2021/11/14 06:43:13;;;;;;;28.55;19.70;;;;;;;6.51;85.36;101181.25;4971057;28;20066;-80
2021/11/14 06:45:38;;;;;;;32.10;20.55;;;;;;;6.45;85.67;101187.25;4968407;28;20039;-79
2021/11/14 06:48:03;;;;;;;30.98;21.15;;;;;;;6.42;85.69;101189.81;4968972;28;20481;-80
2021/11/14 06:52:57;;;;;;;31.65;20.60;;;;;;;6.32;84.93;101190.47;4985969;28;20297;-79
2021/11/14 06:55:22;;;;;;;32.67;22.25;;;;;;;6.24;85.39;101202.53;4989060;28;20045;-79
2021/11/14 06:57:48;;;;;;;32.20;20.38;;;;;;;6.11;84.73;101202.22;4991124;28;20089;-79
2021/11/14 07:00:21;;;;;;;35.58;23.38;;;;;;;5.98;85.99;101207.16;4991328;28;20053;-79
2021/11/14 07:02:46;;;;;;;32.55;20.98;;;;;;;5.89;85.73;101208.69;4971433;28;20039;-79
2021/11/14 07:05:12;;;;;;;40.80;21.05;;;;;;;5.77;85.86;101212.75;4971483;28;20063;-79
2021/11/14 07:07:38;;;;;;;30.27;19.05;;;;;;;5.74;85.97;101223.13;4971724;28;20122;-79
2021/11/14 07:10:05;;;;;;;37.13;21.58;;;;;;;5.68;85.89;101223.88;4970520;28;20050;-79
2021/11/14 07:12:30;;;;;;;29.58;19.92;;;;;;;5.65;86.74;101231.66;4962223;29;20042;-78
2021/11/14 07:14:56;;;;;;;31.00;19.35;;;;;;;5.61;86.73;101230.69;4961226;29;20498;-79
2021/11/14 07:17:22;;;;;;;28.10;17.83;;;;;;;5.58;86.56;101237.56;4969640;28;20035;-79
2021/11/14 07:19:48;;;;;;;45.03;22.65;;;;;;;5.52;86.54;101243.53;4970245;28;20077;-78
2021/11/14 07:22:14;;;;;;;31.83;19.95;;;;;;;5.45;86.77;101246.88;4970586;28;20058;-78
2021/11/14 07:24:39;;;;;;;28.42;17.83;;;;;;;5.45;87.35;101258.22;4968390;28;20490;-78
2021/11/14 07:27:05;;;;;;;25.42;16.60;;;;;;;5.48;86.94;101262.66;4970706;28;20028;-79
2021/11/14 07:29:30;;;;;;;41.50;21.40;;;;;;;5.47;87.71;101263.47;4968419;28;20038;-78
2021/11/14 07:31:55;;;;;;;32.90;19.80;;;;;;;5.49;87.51;101259.19;4969103;28;20047;-79
2021/11/14 07:34:21;;;;;;;31.42;18.95;;;;;;;5.52;87.44;101261.00;4968863;28;20042;-79
2021/11/14 07:36:46;;;;;;;48.53;21.38;;;;;;;5.58;86.98;101262.06;4969381;28;20043;-78
2021/11/14 07:39:12;;;;;;;50.10;24.50;;;;;;;5.64;88.24;101267.44;4968810;28;20053;-79
2021/11/14 07:41:37;;;;;;;30.42;18.73;;;;;;;5.71;87.61;101265.84;4969743;28;20059;-79
2021/11/14 07:44:03;;;;;;;24.85;16.75;;;;;;;5.82;87.15;101268.75;4968969;28;20039;-78
2021/11/14 07:46:28;;;;;;;32.72;18.95;;;;;;;5.92;86.94;101273.34;4969326;28;20027;-78
2021/11/14 07:48:55;;;;;;;26.17;18.05;;;;;;;6.01;87.15;101278.88;4968823;28;20062;-79
2021/11/14 07:51:21;;;;;;;31.50;20.55;;;;;;;6.13;87.24;101288.75;4969008;28;20050;-78
2021/11/14 07:53:46;;;;;;;35.15;22.33;;;;;;;6.22;87.60;101295.97;4971264;28;20038;-79
2021/11/14 07:56:12;;;;;;;35.03;20.15;;;;;;;6.26;87.56;101287.31;4968183;28;20054;-79
2021/11/14 07:58:37;;;;;;;32.20;19.80;;;;;;;6.33;87.10;101299.72;4967830;28;20035;-79
2021/11/14 08:01:03;;;;;;;30.67;19.02;;;;;;;6.44;88.17;101297.34;4968964;28;20043;-79
2021/11/14 08:03:32;;;;;;;30.25;19.55;;;;;;;6.58;87.63;101301.16;4968759;28;20098;-78
2021/11/14 08:05:58;;;;;;;31.55;20.13;;;;;;;6.73;87.67;101305.84;4968506;28;20051;-78
2021/11/14 08:08:23;;;;;;;32.35;20.80;;;;;;;6.75;87.43;101305.03;4968631;28;20045;-79
2021/11/14 08:10:48;;;;;;;33.17;21.45;;;;;;;6.88;87.48;101311.44;4968247;28;20126;-78
2021/11/14 08:13:14;;;;;;;30.02;20.55;;;;;;;6.93;87.12;101314.16;4967652;28;20054;-79
2021/11/14 08:15:39;;;;;;;31.10;21.63;;;;;;;7.03;86.67;101318.75;4966697;28;20043;-79
2021/11/14 08:18:06;;;;;;;33.05;22.50;;;;;;;7.02;86.45;101312.63;4968051;28;20035;-79
2021/11/14 08:20:33;;;;;;;31.48;22.05;;;;;;;7.01;87.44;101313.47;4967994;28;20039;-79
2021/11/14 08:23:00;;;;;;;32.65;22.30;;;;;;;7.17;86.75;101316.41;4974646;28;20039;-79
2021/11/14 08:25:28;;;;;;;32.55;22.00;;;;;;;7.34;86.49;101322.00;4968234;28;20043;-79
2021/11/14 08:27:53;;;;;;;33.03;22.30;;;;;;;7.47;86.01;101326.66;4967907;28;20062;-78
2021/11/14 08:30:20;;;;;;;30.35;20.42;;;;;;;7.56;86.08;101328.56;4968121;28;20046;-79
2021/11/14 08:32:49;;;;;;;32.75;22.88;;;;;;;7.68;85.28;101334.94;4969568;28;20049;-79
2021/11/14 08:35:17;;;;;;;37.70;23.33;;;;;;;7.75;85.29;101341.16;4968077;28;20035;-78
2021/11/14 08:37:42;;;;;;;29.88;20.73;;;;;;;7.78;85.57;101341.25;4968222;28;20094;-79
2021/11/14 08:40:09;;;;;;;33.13;21.80;;;;;;;7.81;85.45;101341.28;4968349;28;20039;-79
2021/11/14 08:42:35;;;;;;;29.48;20.42;;;;;;;7.96;84.94;101348.53;4967334;28;20050;-79
2021/11/14 08:45:02;;;;;;;29.70;21.55;;;;;;;8.11;83.91;101347.94;4967503;28;20031;-79
2021/11/14 08:47:27;;;;;;;33.05;22.10;;;;;;;8.07;83.73;101347.00;4967367;28;20031;-78
2021/11/14 08:49:53;;;;;;;32.83;23.67;;;;;;;8.05;84.23;101345.22;4968517;28;20039;-79
2021/11/14 08:52:18;;;;;;;35.03;23.23;;;;;;;7.94;84.29;101346.75;4967494;28;20042;-79
2021/11/14 08:54:44;;;;;;;31.70;21.85;;;;;;;7.93;85.55;101351.13;4966044;29;20035;-78
2021/11/14 08:57:10;;;;;;;36.10;22.08;;;;;;;8.02;85.35;101350.41;4966261;28;20031;-79
2021/11/14 08:59:35;;;;;;;34.45;23.08;;;;;;;8.04;85.01;101357.47;4974211;28;20215;-79
2021/11/14 09:02:02;;;;;;;30.10;22.00;;;;;;;8.22;84.95;101354.25;4962994;29;20059;-79
2021/11/14 09:04:28;;;;;;;38.30;25.92;;;;;;;8.42;84.34;101351.09;4966395;28;20039;-78
2021/11/14 09:06:55;;;;;;;37.22;25.38;;;;;;;8.60;83.89;101356.66;4967497;28;20043;-79
2021/11/14 09:09:22;;;;;;;34.22;24.50;;;;;;;8.76;83.10;101363.91;4966134;28;20053;-79
2021/11/14 09:11:48;;;;;;;35.47;23.63;;;;;;;8.97;82.77;101357.19;4966938;28;20043;-79
2021/11/14 09:14:15;;;;;;;31.50;23.10;;;;;;;9.21;81.54;101357.47;4974199;28;20045;-79
2021/11/14 09:16:41;;;;;;;35.45;25.02;;;;;;;9.36;81.06;101359.44;4950140;29;20066;-78
2021/11/14 09:19:08;;;;;;;32.63;24.20;;;;;;;9.43;81.17;101357.75;4965377;28;20099;-79
2021/11/14 09:21:35;;;;;;;34.63;24.70;;;;;;;9.49;81.01;101363.09;4966916;28;20039;-79
2021/11/14 09:24:01;;;;;;;31.30;23.33;;;;;;;9.56;80.15;101359.69;4967013;28;20474;-79
2021/11/14 09:26:26;;;;;;;32.35;23.30;;;;;;;9.64;79.48;101370.28;4970693;28;20047;-79
2021/11/14 09:28:51;;;;;;;35.28;23.88;;;;;;;9.50;79.95;101364.84;4965578;29;20098;-79
2021/11/14 09:31:17;;;;;;;31.00;22.45;;;;;;;9.53;79.93;101372.78;4966252;29;20566;-79
2021/11/14 09:33:45;;;;;;;29.83;22.88;;;;;;;9.59;80.19;101380.78;4965808;29;20039;-79
2021/11/14 09:36:10;;;;;;;31.10;22.13;;;;;;;9.59;79.86;101380.78;4967091;28;20167;-79
2021/11/14 09:38:36;;;;;;;29.80;22.92;;;;;;;9.66;79.51;101382.59;4967159;28;20019;-79
2021/11/14 09:41:04;;;;;;;38.13;24.27;;;;;;;9.82;78.88;101372.22;4967107;28;20054;-79
2021/11/14 09:43:31;;;;;;;33.30;23.75;;;;;;;9.94;78.07;101376.75;4966252;28;20051;-79
2021/11/14 09:45:56;;;;;;;29.73;23.48;;;;;;;9.99;77.50;101375.94;4963188;29;20091;-79
2021/11/14 09:48:22;;;;;;;33.25;22.85;;;;;;;10.00;77.78;101372.41;4966220;28;20043;-79
2021/11/14 09:50:53;;;;;;;33.97;24.95;;;;;;;10.03;77.72;101374.19;4966917;28;20041;-79
2021/11/14 09:53:19;;;;;;;31.50;24.10;;;;;;;10.13;77.55;101377.81;4962797;29;20063;-79
2021/11/14 09:55:45;;;;;;;34.25;23.95;;;;;;;10.03;76.72;101371.56;4966545;28;20051;-79
2021/11/14 09:58:10;;;;;;;36.80;27.05;;;;;;;9.97;77.28;101375.03;4949542;29;20035;-79
2021/11/14 10:00:38;;;;;;;34.05;24.63;;;;;;;10.03;77.80;101383.03;4966263;28;20039;-79
2021/11/14 10:03:05;;;;;;;33.90;24.00;;;;;;;10.06;77.57;101372.50;4981887;28;20557;-79
2021/11/14 10:05:34;;;;;;;34.72;25.73;;;;;;;9.96;77.78;101383.81;4965961;29;20497;-79
2021/11/14 10:08:03;;;;;;;33.72;25.58;;;;;;;9.97;78.60;101380.31;4967238;28;20035;-79
2021/11/14 10:10:32;;;;;;;34.17;23.77;;;;;;;9.96;77.57;101386.47;4966389;28;20039;-79
2021/11/14 10:13:10;;;;;;;32.80;23.58;;;;;;;9.92;78.56;101387.28;4967448;28;20061;-79
2021/11/14 10:15:36;;;;;;;30.45;22.30;;;;;;;9.98;77.74;101392.63;4966515;28;20058;-78
2021/11/14 10:18:03;;;;;;;36.85;25.77;;;;;;;10.09;78.24;101395.38;4966127;29;20043;-79
2021/11/14 10:20:30;;;;;;;31.80;23.25;;;;;;;10.21;77.72;101395.47;4968056;28;20516;-79
2021/11/14 10:23:00;;;;;;;31.55;23.02;;;;;;;10.34;76.42;101383.31;4969779;28;20067;-79
2021/11/14 10:25:27;;;;;;;30.95;22.65;;;;;;;10.47;76.72;101387.81;4970108;28;20098;-79
2021/11/14 10:27:55;;;;;;;31.58;21.35;;;;;;;10.59;75.72;101388.81;4969448;28;20084;-79
2021/11/14 10:30:24;;;;;;;32.13;23.10;;;;;;;10.57;75.83;101382.63;4970782;28;20035;-79
2021/11/14 10:32:54;;;;;;;31.75;22.50;;;;;;;10.57;75.11;101388.78;4969750;28;20043;-79
2021/11/14 10:35:19;;;;;;;30.88;21.67;;;;;;;10.62;75.00;101391.47;4969638;28;20037;-79
2021/11/14 10:37:45;;;;;;;32.38;21.90;;;;;;;10.70;74.42;101395.91;4970097;28;20482;-79
2021/11/14 10:40:21;;;;;;;30.40;22.73;;;;;;;10.71;74.66;101388.88;4969419;28;20110;-79
2021/11/14 10:42:52;;;;;;;29.13;21.25;;;;;;;10.85;74.92;101391.63;4970137;29;20141;-79
2021/11/14 10:45:19;;;;;;;29.02;22.48;;;;;;;10.91;74.17;101391.66;4970292;28;20061;-79
2021/11/14 10:48:19;;;;;;;29.10;20.52;;;;;;;10.92;73.54;101390.75;4969591;28;20058;-79
2021/11/14 10:50:56;;;;;;;33.33;23.38;;;;;;;10.91;74.78;101395.16;4960963;28;20446;-79
2021/11/14 10:53:24;;;;;;;37.47;23.95;;;;;;;11.04;74.32;101392.59;4970269;28;20119;-79
2021/11/14 10:55:52;;;;;;;28.15;21.02;;;;;;;11.13;73.60;101395.28;4968630;28;20055;-79
2021/11/14 10:58:20;;;;;;;30.13;21.95;;;;;;;11.08;72.93;101394.38;4969458;28;20036;-79
2021/11/14 11:00:49;;;;;;;31.60;22.65;;;;;;;11.02;73.30;101400.50;4968947;28;20128;-79
2021/11/14 11:03:14;;;;;;;31.50;21.48;;;;;;;11.05;73.94;101394.38;4969402;28;20035;-79
2021/11/14 11:05:40;;;;;;;27.58;20.63;;;;;;;11.09;74.04;101398.81;4968605;28;20031;-79
2021/11/14 11:08:07;;;;;;;27.35;19.67;;;;;;;11.21;72.91;101396.22;4968386;28;20549;-79
2021/11/14 11:10:34;;;;;;;29.75;21.08;;;;;;;11.12;73.14;101399.69;4968811;28;20046;-79
2021/11/14 11:13:08;;;;;;;30.17;22.92;;;;;;;11.13;72.93;101403.22;4969179;28;20035;-79
2021/11/14 11:15:46;;;;;;;28.60;21.52;;;;;;;11.17;72.97;101400.59;4969541;28;20131;-79
2021/11/14 11:18:15;;;;;;;28.13;21.10;;;;;;;11.25;73.07;101395.34;4969068;28;20039;-79
2021/11/14 11:20:42;;;;;;;29.80;22.02;;;;;;;11.25;72.93;101402.41;4969190;28;20860;-79